Time;durP1;ratioP1;P1;durP2;ratioP2;P2;SDS_P1;SDS_P2;PMS_P1;PMS_P2;Temp;Humidity;BMP_temperature;BMP_pressure;BME280_temperature;BME280_humidity;BME280_pressure;Samples;Min_cycle;Max_cycle;Signal;HPM_P1;HPM_P2
2022/11/20 00:01:59;;;;;;;6.63;6.03;;;7.80;48.40;;;;;;10378960;28;20593;-67
2022/11/20 00:07:03;;;;;;;7.27;6.60;;;7.80;48.40;;;;;;10377286;28;20675;-68
2022/11/20 00:12:07;;;;;;;7.80;6.67;;;7.80;48.30;;;;;;10375908;28;20225;-67
2022/11/20 00:17:10;;;;;;;8.00;7.20;;;7.90;48.30;;;;;;10376708;28;20253;-67
2022/11/20 00:22:15;;;;;;;6.87;6.27;;;7.90;48.10;;;;;;10379461;28;20222;-67
2022/11/20 00:27:18;;;;;;;7.70;7.00;;;7.90;48.80;;;;;;10381684;28;20230;-67
2022/11/20 00:32:21;;;;;;;8.00;7.20;;;7.90;48.00;;;;;;10379584;28;20225;-67
2022/11/20 00:37:26;;;;;;;9.10;8.20;;;7.80;47.90;;;;;;10385597;28;20226;-67
2022/11/20 00:42:29;;;;;;;9.37;8.37;;;7.80;47.70;;;;;;10381752;28;20229;-67
2022/11/20 00:47:32;;;;;;;9.27;8.40;;;7.80;47.60;;;;;;10384961;28;20234;-67
2022/11/20 00:52:36;;;;;;;8.87;7.97;;;7.70;47.90;;;;;;10381343;28;20765;-67
2022/11/20 00:57:40;;;;;;;8.73;7.93;;;7.70;48.10;;;;;;10382082;28;20241;-67
2022/11/20 01:02:43;;;;;;;10.20;9.03;;;7.70;48.20;;;;;;10379661;28;20264;-66
2022/11/20 01:07:47;;;;;;;11.80;10.60;;;7.70;48.20;;;;;;10386269;28;20237;-67
2022/11/20 01:13:36;;;;;;;12.40;11.20;;;7.80;48.40;;;;;;10381726;28;20222;-67
2022/11/20 01:18:13;;;;;;;11.63;10.53;;;7.80;48.30;;;;;;10381825;28;20218;-67
2022/11/20 01:23:18;;;;;;;11.03;9.93;;;7.90;48.30;;;;;;10382932;28;20272;-67
2022/11/20 01:28:22;;;;;;;11.30;10.20;;;7.90;48.80;;;;;;10384552;28;20226;-67
2022/11/20 01:33:26;;;;;;;10.90;9.80;;;7.90;48.30;;;;;;10384741;28;20228;-67
2022/11/20 01:38:30;;;;;;;11.17;10.07;;;7.90;48.10;;;;;;10381810;28;20658;-67
2022/11/20 01:43:34;;;;;;;8.67;7.87;;;7.90;48.20;;;;;;10381122;28;20237;-67
2022/11/20 01:48:44;;;;;;;10.93;9.87;;;8.00;48.30;;;;;;10380407;28;20234;-67
2022/11/20 01:53:50;;;;;;;12.13;10.93;;;8.00;48.30;;;;;;10381178;28;20238;-67
2022/11/20 01:58:57;;;;;;;10.60;9.60;;;8.00;48.20;;;;;;10379634;28;20237;-68
2022/11/20 02:04:01;;;;;;;12.07;10.87;;;8.00;48.20;;;;;;10379724;28;20296;-68
2022/11/20 02:09:06;;;;;;;12.60;11.40;;;8.00;48.20;;;;;;10387283;28;20287;-68
2022/11/20 02:14:09;;;;;;;12.63;11.33;;;8.00;48.10;;;;;;10381584;28;20229;-68
2022/11/20 02:19:23;;;;;;;12.60;11.33;;;8.00;48.00;;;;;;10377736;28;20232;-68
2022/11/20 02:24:27;;;;;;;10.70;9.70;;;8.00;48.20;;;;;;10378130;28;20284;-68
2022/11/20 02:29:36;;;;;;;10.90;9.67;;;8.00;48.50;;;;;;10374387;28;20234;-68
2022/11/20 02:34:39;;;;;;;12.00;10.87;;;8.00;48.50;;;;;;10377539;28;20226;-68
2022/11/20 02:39:45;;;;;;;12.63;11.33;;;8.00;48.60;;;;;;10380066;28;20221;-68
2022/11/20 02:44:48;;;;;;;10.77;9.77;;;8.10;48.60;;;;;;10379577;28;20227;-68
2022/11/20 02:49:51;;;;;;;12.33;11.13;;;8.10;48.50;;;;;;10378257;28;20943;-68
2022/11/20 02:54:56;;;;;;;11.50;10.37;;;8.10;48.60;;;;;;10376386;28;20232;-68
2022/11/20 02:59:59;;;;;;;11.80;10.70;;;8.10;48.50;;;;;;10375469;28;20268;-68
2022/11/20 03:05:02;;;;;;;10.13;9.13;;;8.10;48.30;;;;;;10378481;28;20242;-69
2022/11/20 03:10:08;;;;;;;11.30;10.20;;;8.10;48.40;;;;;;10376034;28;20228;-69
2022/11/20 03:15:11;;;;;;;11.53;10.43;;;8.10;48.70;;;;;;10379773;28;20234;-69
2022/11/20 03:20:14;;;;;;;10.40;9.33;;;8.10;48.60;;;;;;10378997;28;20237;-68
2022/11/20 03:25:19;;;;;;;16.20;14.50;;;8.00;48.60;;;;;;10380401;28;20698;-68
2022/11/20 03:30:22;;;;;;;15.87;14.37;;;8.00;48.80;;;;;;10374705;28;20233;-68
2022/11/20 03:35:32;;;;;;;15.40;13.90;;;8.00;49.00;;;;;;10380934;28;20238;-69
2022/11/20 03:40:36;;;;;;;13.83;12.53;;;8.00;49.10;;;;;;10380360;28;20598;-68
2022/11/20 03:45:39;;;;;;;7.43;6.63;;;8.00;49.50;;;;;;10374231;28;20726;-70
2022/11/20 03:50:42;;;;;;;5.03;4.63;;;7.90;50.00;;;;;;10381478;28;20226;-68
2022/11/20 03:55:52;;;;;;;4.40;4.00;;;7.90;50.90;;;;;;10373560;28;20284;-68
2022/11/20 04:00:55;;;;;;;3.83;3.50;;;8.00;51.10;;;;;;10377749;28;20230;-68
2022/11/20 04:06:03;;;;;;;4.57;4.17;;;8.10;51.10;;;;;;10380849;28;20245;-68
2022/11/20 04:11:15;;;;;;;4.10;3.70;;;8.20;51.20;;;;;;10385535;28;20279;-68
2022/11/20 04:16:19;;;;;;;4.30;3.90;;;8.30;51.30;;;;;;10387554;28;20222;-68
2022/11/20 04:21:23;;;;;;;4.10;3.63;;;8.40;50.80;;;;;;10385929;28;20237;-68
2022/11/20 04:26:29;;;;;;;3.80;3.50;;;8.50;50.80;;;;;;10390950;28;20238;-68
2022/11/20 04:31:34;;;;;;;3.70;3.40;;;8.50;50.90;;;;;;10387743;28;20245;-68
2022/11/20 04:36:37;;;;;;;3.57;3.27;;;8.50;50.80;;;;;;10388695;28;20772;-68
2022/11/20 04:41:42;;;;;;;4.80;3.70;;;8.50;50.40;;;;;;10391215;28;20233;-68
2022/11/20 04:46:45;;;;;;;4.20;3.77;;;8.60;50.60;;;;;;10386781;28;20230;-68
2022/11/20 04:51:48;;;;;;;3.70;3.40;;;8.60;50.40;;;;;;10386110;28;20739;-68
2022/11/20 04:56:52;;;;;;;3.67;3.33;;;8.60;50.40;;;;;;10385881;28;20234;-68
2022/11/20 05:01:55;;;;;;;3.43;3.13;;;8.60;50.30;;;;;;10385672;28;20217;-68
2022/11/20 05:06:59;;;;;;;3.80;3.37;;;8.60;50.20;;;;;;10383149;28;20232;-68
2022/11/20 05:12:04;;;;;;;3.50;3.30;;;8.60;50.20;;;;;;10383149;28;20249;-68
2022/11/20 05:17:07;;;;;;;3.87;3.57;;;8.60;50.10;;;;;;10381317;28;20741;-68
2022/11/20 05:22:10;;;;;;;3.90;3.50;;;8.60;50.10;;;;;;10383688;28;20224;-68
2022/11/20 05:27:14;;;;;;;3.30;3.10;;;8.60;50.00;;;;;;10381689;28;20226;-68
2022/11/20 05:32:17;;;;;;;3.90;3.57;;;8.60;50.10;;;;;;10381183;28;20226;-68
2022/11/20 05:37:20;;;;;;;3.47;3.10;;;8.70;50.10;;;;;;10386780;28;20236;-68
2022/11/20 05:42:31;;;;;;;3.73;3.43;;;8.60;50.00;;;;;;10382479;28;20234;-70
2022/11/20 05:47:35;;;;;;;3.40;3.10;;;8.70;50.00;;;;;;10382836;28;20698;-67
2022/11/20 05:52:38;;;;;;;3.60;3.23;;;8.70;50.00;;;;;;10387672;28;20229;-68
2022/11/20 05:57:42;;;;;;;3.50;3.20;;;8.70;50.00;;;;;;10382873;28;20241;-67
2022/11/20 06:02:45;;;;;;;3.10;2.80;;;8.70;49.90;;;;;;10381870;28;20225;-68
2022/11/20 06:07:48;;;;;;;3.20;3.00;;;8.70;50.00;;;;;;10383294;28;20238;-68
2022/11/20 06:12:53;;;;;;;3.60;3.30;;;8.70;50.00;;;;;;10384362;28;20230;-68
2022/11/20 06:17:58;;;;;;;3.00;2.80;;;8.70;49.90;;;;;;10377380;28;20234;-68
2022/11/20 06:23:01;;;;;;;3.50;3.20;;;8.70;50.00;;;;;;10380290;28;20226;-68
2022/11/20 06:28:06;;;;;;;3.97;2.73;;;8.70;50.00;;;;;;10384276;28;20240;-68
2022/11/20 06:33:09;;;;;;;4.23;3.27;;;8.70;49.70;;;;;;10383000;28;20222;-68
2022/11/20 06:38:12;;;;;;;4.10;3.40;;;8.80;49.80;;;;;;10380516;28;20291;-68
2022/11/20 06:43:17;;;;;;;4.47;4.07;;;8.80;49.70;;;;;;10380080;28;20238;-68
2022/11/20 06:48:20;;;;;;;4.33;3.63;;;8.80;49.50;;;;;;10380311;28;20229;-68
2022/11/20 06:53:23;;;;;;;3.30;2.90;;;8.90;49.50;;;;;;10377352;28;20233;-68
2022/11/20 06:58:29;;;;;;;2.80;2.60;;;8.90;49.40;;;;;;10380950;28;20252;-68
2022/11/20 07:03:32;;;;;;;2.80;2.60;;;8.90;49.30;;;;;;10377598;28;20245;-68
2022/11/20 07:08:36;;;;;;;2.83;2.63;;;8.80;49.40;;;;;;10381631;28;20598;-69
2022/11/20 07:13:40;;;;;;;2.60;2.40;;;8.90;49.40;;;;;;10382100;28;20237;-67
2022/11/20 07:18:43;;;;;;;2.47;2.27;;;8.90;49.40;;;;;;10378183;28;20261;-68
2022/11/20 07:23:52;;;;;;;2.23;2.13;;;8.90;49.30;;;;;;10378644;28;20226;-67
2022/11/20 07:28:57;;;;;;;2.43;2.23;;;8.90;49.20;;;;;;10376772;28;20229;-69
2022/11/20 07:34:00;;;;;;;2.60;2.40;;;8.90;49.00;;;;;;10386112;28;20222;-74
2022/11/20 07:39:03;;;;;;;2.70;2.47;;;9.00;49.10;;;;;;10381033;28;20255;-74
2022/11/20 07:44:08;;;;;;;2.27;2.17;;;9.00;48.90;;;;;;10385563;28;20230;-74
2022/11/20 07:49:11;;;;;;;2.83;2.63;;;9.00;48.90;;;;;;10391670;28;20230;-71
2022/11/20 07:54:14;;;;;;;3.43;3.10;;;9.00;48.80;;;;;;10383998;28;20233;-71
2022/11/20 07:59:18;;;;;;;2.83;2.53;;;9.10;48.80;;;;;;10381110;28;20226;-73
2022/11/20 08:04:23;;;;;;;2.73;2.43;;;9.10;48.60;;;;;;10385592;28;20261;-72
2022/11/20 08:09:26;;;;;;;2.73;2.53;;;9.10;48.80;;;;;;10390686;28;20312;-75
2022/11/20 08:14:30;;;;;;;3.40;2.40;;;9.20;49.00;;;;;;10382732;28;20284;-75
2022/11/20 08:19:33;;;;;;;2.53;2.13;;;9.20;48.90;;;;;;10382333;28;20237;-75
2022/11/20 08:24:37;;;;;;;2.90;2.67;;;9.30;48.90;;;;;;10386065;28;20272;-75
2022/11/20 08:29:41;;;;;;;3.10;2.90;;;9.40;48.70;;;;;;10387832;28;20237;-75
2022/11/20 08:34:44;;;;;;;2.87;2.67;;;9.40;48.50;;;;;;10389364;28;20308;-74
2022/11/20 08:39:47;;;;;;;2.57;2.37;;;9.40;48.70;;;;;;10398893;28;20602;-75
2022/11/20 08:44:52;;;;;;;3.53;3.23;;;9.40;48.60;;;;;;10392502;28;20229;-74
2022/11/20 08:49:55;;;;;;;2.37;2.20;;;9.40;48.40;;;;;;10387565;28;20238;-75
2022/11/20 08:54:58;;;;;;;2.70;2.50;;;9.50;48.60;;;;;;10387391;28;20225;-75
2022/11/20 09:00:04;;;;;;;2.40;2.20;;;9.50;48.50;;;;;;10381838;28;20267;-75
2022/11/20 09:05:09;;;;;;;2.40;2.30;;;9.60;48.20;;;;;;10383255;28;20313;-74
2022/11/20 09:10:12;;;;;;;3.20;3.00;;;9.60;48.40;;;;;;10381964;28;20226;-69
2022/11/20 09:15:28;;;;;;;2.80;2.60;;;9.70;48.60;;;;;;10377891;28;20236;-68
2022/11/20 09:20:32;;;;;;;3.00;2.80;;;9.70;48.30;;;;;;10379340;28;20230;-69
2022/11/20 09:25:35;;;;;;;2.70;2.50;;;9.80;48.10;;;;;;10375112;28;20296;-69
2022/11/20 09:30:39;;;;;;;2.70;2.50;;;9.80;48.00;;;;;;10387608;28;20253;-75
2022/11/20 09:35:44;;;;;;;2.70;2.50;;;9.80;47.70;;;;;;10384466;28;20218;-74
2022/11/20 09:40:53;;;;;;;3.10;2.90;;;9.90;47.90;;;;;;10382998;28;20253;-75
2022/11/20 09:46:08;;;;;;;3.80;3.50;;;9.90;47.60;;;;;;10383530;28;20716;-71
2022/11/20 09:51:24;;;;;;;5.20;4.23;;;9.90;47.20;;;;;;10378800;28;20248;-67
2022/11/20 09:56:29;;;;;;;3.53;3.23;;;10.00;46.40;;;;;;10377706;28;20291;-66
2022/11/20 10:01:38;;;;;;;2.80;2.60;;;10.00;46.90;;;;;;10376236;28;20236;-67
2022/11/20 10:06:48;;;;;;;2.67;2.47;;;10.00;46.50;;;;;;10386039;28;20237;-73
2022/11/20 10:12:20;;;;;;;2.83;2.57;;;10.00;46.30;;;;;;10379669;28;20229;-67
2022/11/20 10:17:40;;;;;;;2.37;2.17;;;10.10;46.20;;;;;;10377346;28;20595;-71
2022/11/20 10:22:55;;;;;;;2.73;2.53;;;10.10;46.40;;;;;;10375909;28;20230;-71
2022/11/20 10:28:23;;;;;;;4.57;2.87;;;10.10;46.00;;;;;;10373647;28;20237;-71
2022/11/20 10:33:32;;;;;;;4.60;2.33;;;10.20;46.20;;;;;;10378480;28;20740;-73
2022/11/20 10:39:00;;;;;;;3.60;2.37;;;10.20;47.50;;;;;;10379223;28;20289;-73
2022/11/20 10:44:10;;;;;;;2.60;2.23;;;10.30;46.50;;;;;;10373128;28;20223;-72
2022/11/20 10:49:17;;;;;;;2.97;2.77;;;10.30;46.30;;;;;;10372831;28;20238;-69
2022/11/20 10:54:25;;;;;;;3.03;2.83;;;10.40;46.30;;;;;;10380432;28;20809;-68
2022/11/20 10:59:39;;;;;;;2.53;2.33;;;10.40;46.20;;;;;;10374106;28;20883;-68
2022/11/20 11:04:46;;;;;;;2.23;2.13;;;10.50;45.90;;;;;;10382756;28;20252;-68
2022/11/20 11:09:52;;;;;;;2.73;2.33;;;10.50;46.30;;;;;;10377694;28;20241;-67
2022/11/20 11:14:57;;;;;;;2.30;2.13;;;10.50;46.30;;;;;;10375442;28;20621;-74
2022/11/20 11:20:05;;;;;;;2.40;2.20;;;10.40;46.30;;;;;;10377916;28;20308;-75
2022/11/20 11:25:25;;;;;;;2.10;2.00;;;10.40;46.50;;;;;;10377176;28;20866;-75
2022/11/20 11:30:31;;;;;;;1.93;1.83;;;10.40;46.20;;;;;;10379152;28;20273;-69
2022/11/20 11:35:45;;;;;;;1.70;1.60;;;10.40;46.60;;;;;;10374891;28;20249;-68
2022/11/20 11:40:56;;;;;;;1.90;1.70;;;10.50;46.30;;;;;;10377357;28;20713;-73
2022/11/20 11:46:00;;;;;;;1.57;1.47;;;10.50;46.30;;;;;;10374302;28;20867;-73
2022/11/20 11:51:09;;;;;;;1.70;1.60;;;10.50;46.30;;;;;;10376712;28;20793;-69
2022/11/20 11:56:14;;;;;;;1.80;1.70;;;10.60;46.10;;;;;;10376417;28;20233;-74
2022/11/20 12:01:30;;;;;;;1.97;1.77;;;10.60;46.40;;;;;;10378698;28;20227;-74
2022/11/20 12:06:40;;;;;;;1.80;1.67;;;10.60;45.90;;;;;;10375349;28;20320;-69
2022/11/20 12:11:50;;;;;;;2.13;1.93;;;10.60;45.80;;;;;;10379219;28;20288;-69
2022/11/20 12:16:55;;;;;;;2.40;2.20;;;10.60;45.50;;;;;;10372655;28;20234;-69
2022/11/20 12:22:06;;;;;;;1.90;1.80;;;10.60;46.30;;;;;;10374577;28;20230;-69
2022/11/20 12:27:40;;;;;;;1.90;1.80;;;10.60;45.70;;;;;;10375917;28;20591;-69
2022/11/20 12:33:14;;;;;;;1.50;1.40;;;10.60;45.40;;;;;;10380680;28;20735;-69
2022/11/20 12:38:53;;;;;;;1.70;1.60;;;10.60;45.40;;;;;;10389492;28;20240;-68
2022/11/20 12:49:38;;;;;;;2.60;1.70;;;10.60;45.60;;;;;;10386537;28;20238;-73
2022/11/20 12:55:00;;;;;;;1.73;1.63;;;10.60;45.80;;;;;;10383192;28;20233;-69
2022/11/20 13:00:15;;;;;;;1.90;1.70;;;10.60;45.70;;;;;;10338836;28;20287;-68
2022/11/20 13:05:21;;;;;;;1.90;1.80;;;10.70;45.90;;;;;;10343160;28;20262;-68
2022/11/20 13:10:33;;;;;;;2.00;1.90;;;10.60;46.10;;;;;;10338936;28;20714;-68
2022/11/20 13:15:49;;;;;;;2.47;1.87;;;10.50;46.30;;;;;;10339957;28;20293;-68
2022/11/20 13:20:52;;;;;;;1.90;1.80;;;10.50;46.10;;;;;;10341591;28;20230;-69
2022/11/20 13:26:07;;;;;;;1.90;1.80;;;10.60;46.40;;;;;;10338529;28;20226;-68
2022/11/20 13:31:35;;;;;;;2.53;1.90;;;10.60;46.40;;;;;;10377954;28;20724;-72
2022/11/20 13:36:50;;;;;;;1.80;1.70;;;10.50;46.30;;;;;;10379736;28;20234;-69
2022/11/20 13:41:56;;;;;;;2.53;1.60;;;10.50;46.30;;;;;;10381103;28;20233;-69
2022/11/20 13:47:01;;;;;;;2.60;2.10;;;10.60;46.40;;;;;;10379897;28;20237;-68
2022/11/20 13:52:29;;;;;;;4.23;2.40;;;10.60;46.60;;;;;;10381892;28;20232;-68
2022/11/20 13:57:48;;;;;;;7.53;6.83;;;10.60;46.40;;;;;;10378882;28;20585;-73
2022/11/20 14:03:03;;;;;;;3.47;3.17;;;10.60;46.50;;;;;;10381738;28;20234;-68
2022/11/20 14:08:14;;;;;;;3.53;3.23;;;10.60;46.40;;;;;;10383690;28;20726;-68
2022/11/20 14:13:19;;;;;;;3.57;3.03;;;10.70;46.60;;;;;;10380958;28;20226;-68
2022/11/20 14:18:26;;;;;;;3.10;2.80;;;10.70;46.50;;;;;;10378876;28;20272;-68
2022/11/20 14:23:30;;;;;;;2.93;2.73;;;10.70;46.50;;;;;;10373242;28;20233;-69
2022/11/20 14:28:33;;;;;;;2.20;2.00;;;10.70;46.50;;;;;;10377251;28;20240;-68
2022/11/20 14:33:38;;;;;;;3.07;2.77;;;10.70;46.50;;;;;;10380365;28;20242;-72
2022/11/20 14:38:42;;;;;;;2.17;2.00;;;10.70;46.30;;;;;;10377967;28;20231;-68
2022/11/20 14:43:47;;;;;;;2.00;1.90;;;10.70;46.50;;;;;;10377724;28;20253;-68
2022/11/20 14:48:55;;;;;;;1.83;1.73;;;10.70;46.00;;;;;;10374560;28;20233;-68
2022/11/20 14:54:12;;;;;;;2.30;1.70;;;10.70;45.70;;;;;;10377981;28;20232;-75
2022/11/20 14:59:24;;;;;;;1.50;1.40;;;10.70;45.40;;;;;;10377095;28;20249;-73
2022/11/20 15:04:29;;;;;;;1.63;1.53;;;10.70;45.50;;;;;;10374626;28;20230;-68
2022/11/20 15:09:32;;;;;;;3.03;1.90;;;10.70;46.10;;;;;;10373721;28;20319;-74
2022/11/20 15:14:37;;;;;;;2.30;2.10;;;10.70;46.10;;;;;;10379919;28;20582;-76
2022/11/20 15:19:42;;;;;;;1.87;1.53;;;10.70;46.00;;;;;;10376546;28;20238;-73
2022/11/20 15:24:45;;;;;;;1.80;1.70;;;10.70;45.90;;;;;;10374357;28;20234;-69
2022/11/20 15:29:48;;;;;;;1.93;1.83;;;10.80;46.00;;;;;;10376746;28;20935;-69
2022/11/20 15:34:53;;;;;;;1.70;1.60;;;10.70;45.90;;;;;;10377741;28;20233;-68
2022/11/20 15:39:56;;;;;;;2.03;1.93;;;10.70;45.70;;;;;;10391293;23;20715;-72
2022/11/20 15:44:59;;;;;;;3.50;3.20;;;10.70;46.00;;;;;;10377261;28;20218;-71
2022/11/20 15:50:05;;;;;;;2.33;2.13;;;10.60;46.20;;;;;;10368102;28;20229;-70
2022/11/20 15:55:10;;;;;;;3.07;2.13;;;10.60;46.00;;;;;;10349115;28;20232;-71
2022/11/20 16:00:14;;;;;;;2.20;2.00;;;10.60;46.10;;;;;;10345209;28;20244;-71
2022/11/20 16:05:29;;;;;;;3.23;2.60;;;10.60;46.10;;;;;;10352583;28;20221;-71
2022/11/20 16:10:32;;;;;;;2.93;2.63;;;10.60;45.90;;;;;;10367275;28;20234;-68
2022/11/20 16:15:47;;;;;;;2.43;2.13;;;10.60;46.20;;;;;;10352957;28;20227;-71
2022/11/20 16:20:54;;;;;;;2.27;2.07;;;10.60;46.30;;;;;;10347820;28;20232;-68
2022/11/20 16:25:57;;;;;;;3.20;2.90;;;10.70;46.00;;;;;;10355477;28;20226;-72
2022/11/20 16:31:09;;;;;;;1.80;1.70;;;10.70;46.60;;;;;;10355760;28;20230;-72
2022/11/20 16:36:15;;;;;;;3.73;3.43;;;10.70;45.40;;;;;;10355926;28;20286;-72
2022/11/20 16:41:18;;;;;;;3.20;2.90;;;10.60;45.50;;;;;;10352245;28;20288;-72
2022/11/20 16:46:23;;;;;;;3.20;2.90;;;10.60;45.60;;;;;;10355153;28;20242;-72
2022/11/20 16:51:30;;;;;;;3.70;3.40;;;10.60;45.70;;;;;;10356339;28;20295;-71
2022/11/20 16:56:33;;;;;;;3.50;3.20;;;10.50;45.30;;;;;;10363038;28;20656;-72
2022/11/20 17:01:39;;;;;;;3.40;3.10;;;10.50;45.60;;;;;;10356495;28;20237;-72
2022/11/20 17:06:44;;;;;;;3.10;2.20;;;10.50;45.60;;;;;;10355439;28;20254;-69
2022/11/20 17:11:49;;;;;;;3.90;3.57;;;10.40;45.40;;;;;;10359605;28;20227;-70
2022/11/20 17:16:52;;;;;;;3.60;3.30;;;10.30;45.60;;;;;;10351396;28;20220;-72
2022/11/20 17:21:56;;;;;;;3.90;3.60;;;10.30;45.80;;;;;;10356944;28;20226;-73
2022/11/20 17:26:59;;;;;;;4.67;4.07;;;10.20;45.60;;;;;;10359728;28;21039;-73
2022/11/20 17:32:02;;;;;;;4.33;3.93;;;10.20;45.80;;;;;;10354618;28;20246;-70
2022/11/20 17:37:07;;;;;;;3.50;3.23;;;10.10;45.70;;;;;;10357387;28;20234;-70
2022/11/20 17:42:28;;;;;;;4.10;3.70;;;10.10;45.50;;;;;;10364325;28;20226;-70
2022/11/20 17:47:31;;;;;;;3.20;2.90;;;10.00;45.70;;;;;;10360922;28;20230;-72
2022/11/20 17:52:35;;;;;;;3.13;2.93;;;10.00;45.70;;;;;;10352240;28;20230;-69
2022/11/20 17:57:55;;;;;;;2.80;2.60;;;10.00;45.50;;;;;;10358043;28;20722;-69
2022/11/20 18:02:58;;;;;;;2.33;2.10;;;10.00;45.60;;;;;;10350475;28;20784;-73
2022/11/20 18:08:03;;;;;;;2.43;2.20;;;9.90;46.50;;;;;;10367967;28;20263;-72
2022/11/20 18:13:06;;;;;;;1.77;1.67;;;9.80;46.30;;;;;;10360475;28;20269;-70
2022/11/20 18:18:09;;;;;;;1.70;1.60;;;9.80;46.40;;;;;;10368262;28;20902;-72
2022/11/20 18:23:14;;;;;;;1.97;1.87;;;9.70;46.40;;;;;;10362275;28;20249;-72
2022/11/20 18:28:18;;;;;;;2.90;2.33;;;9.70;46.30;;;;;;10367804;28;20241;-70
2022/11/20 18:33:21;;;;;;;2.87;2.67;;;9.60;46.50;;;;;;10362316;28;20873;-68
2022/11/20 18:38:31;;;;;;;3.73;3.43;;;9.50;46.30;;;;;;10357234;28;20242;-69
2022/11/20 18:48:55;;;;;;;2.57;2.37;;;9.50;46.40;;;;;;10354723;28;20230;-69
2022/11/20 18:54:00;;;;;;;2.40;2.20;;;9.50;46.30;;;;;;10357013;28;21006;-69
2022/11/20 18:59:03;;;;;;;2.83;1.83;;;9.40;46.00;;;;;;10348823;28;20238;-69
2022/11/20 19:04:07;;;;;;;4.20;3.47;;;9.40;46.10;;;;;;10360881;28;20221;-69
2022/11/20 19:09:13;;;;;;;3.63;2.10;;;9.40;46.00;;;;;;10350313;28;20222;-69
2022/11/20 19:14:16;;;;;;;2.53;2.33;;;9.30;45.80;;;;;;10362827;28;20699;-69
2022/11/20 19:19:19;;;;;;;9.20;7.07;;;9.30;46.10;;;;;;10361225;28;20222;-69
2022/11/20 19:24:26;;;;;;;5.20;4.70;;;9.30;46.10;;;;;;10362953;28;20237;-69
2022/11/20 19:29:29;;;;;;;4.90;4.40;;;9.20;45.80;;;;;;10351927;28;20229;-69
2022/11/20 19:34:33;;;;;;;7.37;6.13;;;9.10;46.00;;;;;;10355171;28;20604;-69
2022/11/20 19:39:37;;;;;;;5.10;4.60;;;9.10;46.10;;;;;;10356038;28;20288;-69
2022/11/20 19:44:41;;;;;;;6.90;6.30;;;9.00;46.00;;;;;;10357248;28;20784;-69
2022/11/20 19:49:44;;;;;;;6.17;5.57;;;9.00;46.00;;;;;;10365026;28;20222;-70
2022/11/20 19:54:48;;;;;;;4.83;4.20;;;8.90;46.10;;;;;;10373681;28;20233;-70
2022/11/20 19:59:52;;;;;;;4.40;4.00;;;8.90;46.20;;;;;;10373714;28;20260;-70
2022/11/20 20:04:55;;;;;;;4.07;3.67;;;8.90;46.40;;;;;;10368063;28;20219;-70
2022/11/20 20:09:59;;;;;;;5.37;4.87;;;8.80;46.40;;;;;;10366708;28;20226;-70
2022/11/20 20:15:02;;;;;;;4.40;4.00;;;8.80;46.50;;;;;;10369350;28;20876;-70
2022/11/20 20:20:07;;;;;;;4.63;3.93;;;8.80;46.50;;;;;;10369880;28;20237;-70
2022/11/20 20:25:11;;;;;;;4.47;4.07;;;8.80;46.40;;;;;;10366967;28;20226;-70
2022/11/20 20:30:15;;;;;;;3.57;3.27;;;8.80;46.40;;;;;;10368451;28;20222;-70
2022/11/20 20:35:18;;;;;;;3.57;3.37;;;8.70;46.40;;;;;;10365005;28;20226;-70
2022/11/20 20:40:23;;;;;;;4.00;3.60;;;8.70;46.50;;;;;;10369473;28;20241;-70
2022/11/20 20:45:26;;;;;;;3.80;3.50;;;8.60;46.50;;;;;;10372116;28;20229;-70
2022/11/20 20:50:29;;;;;;;4.37;3.33;;;8.60;46.70;;;;;;10369470;28;20226;-70
2022/11/20 20:55:34;;;;;;;3.83;3.43;;;8.70;46.70;;;;;;10362767;28;20225;-70
2022/11/20 21:00:39;;;;;;;3.60;3.30;;;8.70;46.70;;;;;;10365538;28;20231;-70
2022/11/20 21:05:42;;;;;;;3.70;3.40;;;8.70;46.70;;;;;;10366952;28;20268;-70
2022/11/20 21:10:47;;;;;;;3.43;3.13;;;8.70;46.70;;;;;;10363773;28;20238;-70
2022/11/20 21:15:51;;;;;;;4.17;3.70;;;8.70;46.90;;;;;;10372781;28;20239;-70
2022/11/20 21:26:16;;;;;;;3.63;3.27;;;8.70;46.80;;;;;;10359138;28;20686;-70
2022/11/20 21:31:22;;;;;;;3.30;3.00;;;8.70;46.90;;;;;;10362301;28;20253;-70
2022/11/20 21:36:27;;;;;;;3.30;2.97;;;8.70;46.90;;;;;;10357390;28;20226;-70
2022/11/20 21:41:32;;;;;;;3.33;2.67;;;8.70;47.00;;;;;;10350729;28;20249;-72
2022/11/20 21:46:39;;;;;;;2.50;2.30;;;8.70;47.20;;;;;;10353825;28;20238;-72
2022/11/20 21:51:42;;;;;;;2.20;2.00;;;8.80;47.40;;;;;;10359937;28;20243;-72
2022/11/20 21:56:46;;;;;;;2.77;2.37;;;8.90;47.40;;;;;;10358355;28;20382;-72
2022/11/20 22:01:49;;;;;;;1.80;1.70;;;8.90;47.40;;;;;;10358629;28;20238;-72
2022/11/20 22:06:53;;;;;;;1.70;1.60;;;8.90;47.20;;;;;;10354471;28;20230;-72
2022/11/20 22:11:57;;;;;;;2.10;1.90;;;8.90;47.20;;;;;;10351117;28;20247;-72
2022/11/20 22:17:00;;;;;;;1.87;1.70;;;8.90;47.30;;;;;;10359616;28;20288;-72
2022/11/20 22:22:04;;;;;;;2.03;1.83;;;8.80;47.30;;;;;;10359848;28;20252;-71
2022/11/20 22:27:10;;;;;;;1.87;1.70;;;8.80;47.40;;;;;;10357801;28;20799;-71
2022/11/20 22:32:13;;;;;;;2.13;1.70;;;8.80;47.40;;;;;;10356571;28;20702;-72
2022/11/20 22:37:17;;;;;;;1.57;1.47;;;8.70;47.30;;;;;;10358828;28;20284;-72
2022/11/20 22:42:21;;;;;;;2.87;1.70;;;8.70;47.40;;;;;;10365063;28;20358;-71
2022/11/20 22:47:24;;;;;;;1.90;1.80;;;8.70;47.50;;;;;;10365151;28;20885;-72
2022/11/20 22:52:27;;;;;;;1.90;1.77;;;8.60;47.50;;;;;;10354963;28;20277;-72
2022/11/20 22:57:32;;;;;;;3.57;1.90;;;8.50;47.80;;;;;;10362961;28;20242;-72
2022/11/20 23:02:36;;;;;;;2.30;1.70;;;8.40;48.00;;;;;;10361497;28;20234;-71
2022/11/20 23:07:40;;;;;;;1.70;1.60;;;8.40;48.10;;;;;;10356401;28;20230;-72
2022/11/20 23:12:45;;;;;;;1.73;1.63;;;8.40;48.20;;;;;;10350161;28;20234;-72
2022/11/20 23:17:48;;;;;;;1.80;1.70;;;8.40;48.40;;;;;;10356760;28;20226;-71
2022/11/20 23:22:51;;;;;;;1.70;1.60;;;8.40;48.40;;;;;;10360711;28;20965;-72
2022/11/20 23:27:55;;;;;;;1.50;1.40;;;8.40;48.40;;;;;;10365170;28;20237;-70
2022/11/20 23:32:58;;;;;;;1.10;1.10;;;8.40;48.60;;;;;;10356320;28;20234;-70
2022/11/20 23:38:01;;;;;;;1.30;1.30;;;8.40;48.50;;;;;;10356544;28;20608;-70
2022/11/20 23:43:15;;;;;;;1.10;1.10;;;8.40;48.40;;;;;;10361264;28;20221;-70
2022/11/20 23:48:19;;;;;;;0.90;0.90;;;8.40;48.50;;;;;;10355103;28;20234;-70
2022/11/20 23:53:22;;;;;;;0.90;0.90;;;8.40;48.30;;;;;;10353267;28;20242;-70
2022/11/20 23:58:31;;;;;;;0.90;0.90;;;8.40;48.30;;;;;;10358750;28;20237;-70
